RYR7MQ LIME-LGIR
Flight info
| Callsign | RYR7MQ |
|---|---|
| Flight time | N/A |
| Altitude | 37000 |
| Route | LOGDI DCT EKDIR DCT LOMED DCT LATAN DCT TRL UM601 MIL UL617 XAVIS |
| Aircraft | B738/M-SDE2E3FGHIRWXY/LB1 |
Departure
| Time | 2026-04-30 10:09 |
|---|---|
| Airport | Il Caravaggio International Airport (LIME) |
Arrival
| Time | N/A |
|---|---|
| Airport | Heraklion International Nikos Kazantzakis Airport (LGIR) |
| Time | Latitude | Longitude | Altitude | Speed | Heading |
|---|---|---|---|---|---|
| 2026-04-30 09:40 | 45.66792 | 9.69289 | 786 ft | 0 kts | 195° |
| 2026-04-30 10:06 | 45.66790 | 9.69283 | 786 ft | 1 kts | 241° |
| 2026-04-30 10:06 | 45.66809 | 9.69266 | 786 ft | 5 kts | 341° |
| 2026-04-30 10:06 | 45.66847 | 9.69254 | 786 ft | 6 kts | 349° |
| 2026-04-30 10:07 | 45.66887 | 9.69218 | 786 ft | 8 kts | 292° |
| 2026-04-30 10:07 | 45.66905 | 9.69123 | 786 ft | 11 kts | 274° |
| 2026-04-30 10:07 | 45.66912 | 9.69020 | 786 ft | 10 kts | 293° |
| 2026-04-30 10:07 | 45.66964 | 9.68986 | 786 ft | 8 kts | 4° |
| 2026-04-30 10:08 | 45.67019 | 9.69002 | 786 ft | 9 kts | 12° |
| 2026-04-30 10:08 | 45.67081 | 9.69032 | 786 ft | 10 kts | 47° |
| 2026-04-30 10:08 | 45.67074 | 9.69122 | 786 ft | 9 kts | 106° |
| 2026-04-30 10:08 | 45.67056 | 9.69220 | 786 ft | 13 kts | 105° |
| 2026-04-30 10:09 | 45.66994 | 9.69564 | 786 ft | 68 kts | 105° |
| 2026-04-30 10:09 | 45.66816 | 9.70525 | 786 ft | 129 kts | 105° |
| 2026-04-30 10:09 | 45.66530 | 9.71969 | 957 ft | 162 kts | 107° |
| 2026-04-30 10:09 | 45.66232 | 9.73492 | 1757 ft | 157 kts | 106° |
| 2026-04-30 10:10 | 45.65823 | 9.74937 | 2461 ft | 163 kts | 123° |
| 2026-04-30 10:10 | 45.65005 | 9.76161 | 2973 ft | 179 kts | 144° |
| 2026-04-30 10:10 | 45.63833 | 9.76939 | 3505 ft | 194 kts | 159° |
| 2026-04-30 10:10 | 45.62482 | 9.77349 | 3970 ft | 206 kts | 172° |
| 2026-04-30 10:11 | 45.60990 | 9.77226 | 4296 ft | 224 kts | 190° |
| 2026-04-30 10:11 | 45.59557 | 9.76303 | 4675 ft | 231 kts | 213° |
| 2026-04-30 10:11 | 45.58449 | 9.74619 | 5056 ft | 236 kts | 233° |
| 2026-04-30 10:11 | 45.57545 | 9.72627 | 5466 ft | 239 kts | 233° |
| 2026-04-30 10:12 | 45.56619 | 9.70682 | 6003 ft | 239 kts | 232° |
| 2026-04-30 10:12 | 45.55639 | 9.68702 | 6587 ft | 245 kts | 233° |
| 2026-04-30 10:12 | 45.54601 | 9.66740 | 7107 ft | 250 kts | 223° |
| 2026-04-30 10:12 | 45.53146 | 9.65470 | 7821 ft | 249 kts | 198° |
| 2026-04-30 10:13 | 45.51435 | 9.65000 | 8451 ft | 252 kts | 186° |
| 2026-04-30 10:13 | 45.49687 | 9.64697 | 9134 ft | 254 kts | 187° |
| 2026-04-30 10:13 | 45.47917 | 9.64378 | 9816 ft | 259 kts | 187° |
| 2026-04-30 10:13 | 45.46102 | 9.64047 | 10338 ft | 268 kts | 188° |
| 2026-04-30 10:14 | 45.44246 | 9.63696 | 10865 ft | 274 kts | 188° |
| 2026-04-30 10:14 | 45.42354 | 9.63332 | 11542 ft | 277 kts | 188° |
| 2026-04-30 10:14 | 45.38466 | 9.62582 | 12878 ft | 283 kts | 188° |
| 2026-04-30 10:15 | 45.36511 | 9.62706 | 13561 ft | 284 kts | 160° |
| 2026-04-30 10:15 | 45.34715 | 9.63965 | 13976 ft | 298 kts | 147° |
| 2026-04-30 10:15 | 45.32899 | 9.65614 | 14159 ft | 320 kts | 145° |
| 2026-04-30 10:15 | 45.30980 | 9.67438 | 14311 ft | 343 kts | 144° |
| 2026-04-30 10:16 | 45.28938 | 9.69385 | 14513 ft | 363 kts | 145° |
| 2026-04-30 10:16 | 45.26810 | 9.71395 | 15019 ft | 372 kts | 144° |
| 2026-04-30 10:16 | 45.24627 | 9.73436 | 15599 ft | 379 kts | 145° |
| 2026-04-30 10:17 | 45.20183 | 9.77549 | 16984 ft | 385 kts | 145° |
| 2026-04-30 10:17 | 45.15648 | 9.81720 | 18296 ft | 392 kts | 145° |
| 2026-04-30 10:17 | 45.13342 | 9.83839 | 18845 ft | 397 kts | 146° |
| 2026-04-30 10:18 | 45.11034 | 9.85953 | 19595 ft | 395 kts | 146° |
| 2026-04-30 10:18 | 45.08715 | 9.88080 | 20086 ft | 401 kts | 146° |
| 2026-04-30 10:18 | 45.06358 | 9.90239 | 20621 ft | 405 kts | 146° |
| 2026-04-30 10:19 | 45.01614 | 9.94577 | 21626 ft | 414 kts | 146° |
| 2026-04-30 10:19 | 44.99184 | 9.96773 | 22181 ft | 417 kts | 147° |
| 2026-04-30 10:19 | 44.96679 | 9.98887 | 22744 ft | 420 kts | 149° |
| 2026-04-30 10:19 | 44.94137 | 10.00955 | 23303 ft | 423 kts | 149° |
| 2026-04-30 10:20 | 44.91564 | 10.03034 | 23725 ft | 429 kts | 149° |
| 2026-04-30 10:20 | 44.86349 | 10.07277 | 24579 ft | 436 kts | 149° |
| 2026-04-30 10:20 | 44.83719 | 10.09431 | 25008 ft | 438 kts | 149° |
| 2026-04-30 10:21 | 44.81074 | 10.11603 | 25423 ft | 442 kts | 149° |
| 2026-04-30 10:21 | 44.78412 | 10.13789 | 25799 ft | 445 kts | 150° |
| 2026-04-30 10:21 | 44.75725 | 10.15993 | 26185 ft | 448 kts | 150° |
| 2026-04-30 10:21 | 44.73019 | 10.18208 | 26555 ft | 452 kts | 151° |
| 2026-04-30 10:22 | 44.70297 | 10.20477 | 26782 ft | 459 kts | 149° |
| 2026-04-30 10:22 | 44.67640 | 10.23016 | 27149 ft | 463 kts | 145° |
| 2026-04-30 10:22 | 44.65037 | 10.25707 | 27558 ft | 466 kts | 144° |
| 2026-04-30 10:22 | 44.62445 | 10.28448 | 27900 ft | 469 kts | 144° |
| 2026-04-30 10:23 | 44.59824 | 10.31210 | 28226 ft | 473 kts | 144° |
| 2026-04-30 10:23 | 44.57174 | 10.33968 | 28524 ft | 476 kts | 145° |
| 2026-04-30 10:23 | 44.54498 | 10.36719 | 28860 ft | 479 kts | 146° |
| 2026-04-30 10:23 | 44.51794 | 10.39472 | 29170 ft | 482 kts | 147° |
| 2026-04-30 10:24 | 44.49051 | 10.42249 | 29281 ft | 490 kts | 147° |
| 2026-04-30 10:24 | 44.46273 | 10.45053 | 29598 ft | 493 kts | 147° |
| 2026-04-30 10:24 | 44.43493 | 10.47858 | 29986 ft | 494 kts | 147° |
| 2026-04-30 10:24 | 44.40698 | 10.50678 | 30295 ft | 497 kts | 147° |
| 2026-04-30 10:25 | 44.37884 | 10.53514 | 30534 ft | 500 kts | 147° |
| 2026-04-30 10:25 | 44.35062 | 10.56356 | 30778 ft | 502 kts | 147° |
| 2026-04-30 10:25 | 44.32225 | 10.59211 | 31091 ft | 503 kts | 147° |
| 2026-04-30 10:25 | 44.29376 | 10.62074 | 31345 ft | 505 kts | 147° |
| 2026-04-30 10:26 | 44.26524 | 10.64937 | 31630 ft | 506 kts | 147° |
| 2026-04-30 10:26 | 44.23667 | 10.67801 | 31985 ft | 505 kts | 147° |
| 2026-04-30 10:26 | 44.20862 | 10.70748 | 32392 ft | 505 kts | 142° |
| 2026-04-30 10:26 | 44.18349 | 10.74170 | 32740 ft | 507 kts | 132° |
| 2026-04-30 10:27 | 44.16097 | 10.77946 | 33098 ft | 506 kts | 130° |
| 2026-04-30 10:27 | 44.13880 | 10.81757 | 33410 ft | 506 kts | 130° |
| 2026-04-30 10:27 | 44.11654 | 10.85555 | 33749 ft | 506 kts | 131° |
| 2026-04-30 10:27 | 44.09414 | 10.89312 | 34048 ft | 505 kts | 131° |
| 2026-04-30 10:28 | 44.07152 | 10.93052 | 34306 ft | 505 kts | 131° |
| 2026-04-30 10:28 | 44.04886 | 10.96779 | 34548 ft | 505 kts | 131° |
| 2026-04-30 10:28 | 44.02621 | 11.00517 | 34820 ft | 505 kts | 130° |
| 2026-04-30 10:28 | 44.00494 | 11.04390 | 35083 ft | 504 kts | 127° |
| 2026-04-30 10:29 | 43.98442 | 11.08326 | 35337 ft | 503 kts | 126° |
| 2026-04-30 10:29 | 43.96448 | 11.12230 | 35566 ft | 502 kts | 126° |
| 2026-04-30 10:29 | 43.94412 | 11.16235 | 35807 ft | 502 kts | 126° |
| 2026-04-30 10:29 | 43.92423 | 11.20130 | 36050 ft | 500 kts | 126° |
| 2026-04-30 10:30 | 43.90405 | 11.24056 | 36317 ft | 499 kts | 126° |
| 2026-04-30 10:30 | 43.88383 | 11.27964 | 36597 ft | 498 kts | 126° |
| 2026-04-30 10:30 | 43.86364 | 11.31847 | 36907 ft | 497 kts | 126° |
| 2026-04-30 10:30 | 43.84594 | 11.35237 | 37058 ft | 497 kts | 127° |
| 2026-04-30 10:31 | 43.82573 | 11.39101 | 37253 ft | 496 kts | 127° |
| 2026-04-30 10:31 | 43.80537 | 11.42987 | 37189 ft | 500 kts | 127° |
| 2026-04-30 10:31 | 43.76479 | 11.50720 | 37201 ft | 499 kts | 127° |
| 2026-04-30 10:32 | 43.72408 | 11.58458 | 37211 ft | 496 kts | 127° |
| 2026-04-30 10:32 | 43.68348 | 11.66157 | 37208 ft | 494 kts | 127° |
| 2026-04-30 10:33 | 43.64297 | 11.73820 | 37202 ft | 494 kts | 127° |
| 2026-04-30 10:33 | 43.60249 | 11.81457 | 37205 ft | 493 kts | 127° |
| 2026-04-30 10:34 | 43.56193 | 11.89089 | 37216 ft | 493 kts | 127° |
| 2026-04-30 10:34 | 43.52131 | 11.96713 | 37226 ft | 494 kts | 127° |
| 2026-04-30 10:35 | 43.48053 | 12.04346 | 37232 ft | 496 kts | 127° |
| 2026-04-30 10:35 | 43.43977 | 12.11957 | 37217 ft | 498 kts | 127° |
| 2026-04-30 10:36 | 43.39834 | 12.19671 | 37217 ft | 499 kts | 127° |
| 2026-04-30 10:36 | 43.35724 | 12.27306 | 37200 ft | 501 kts | 128° |
| 2026-04-30 10:37 | 43.31573 | 12.34996 | 37199 ft | 502 kts | 128° |
| 2026-04-30 10:37 | 43.27406 | 12.42697 | 37206 ft | 502 kts | 128° |
| 2026-04-30 10:38 | 43.23231 | 12.50390 | 37191 ft | 503 kts | 128° |
| 2026-04-30 10:38 | 43.19048 | 12.58081 | 37175 ft | 503 kts | 128° |
| 2026-04-30 10:39 | 43.14871 | 12.65739 | 37196 ft | 501 kts | 128° |
| 2026-04-30 10:39 | 43.10688 | 12.73388 | 37171 ft | 501 kts | 128° |
| 2026-04-30 10:40 | 43.06518 | 12.80993 | 37191 ft | 500 kts | 128° |
| 2026-04-30 10:40 | 43.02349 | 12.88577 | 37187 ft | 498 kts | 128° |
| 2026-04-30 10:41 | 42.98187 | 12.96131 | 37202 ft | 497 kts | 128° |
| 2026-04-30 10:41 | 42.94033 | 13.03649 | 37194 ft | 495 kts | 128° |
| 2026-04-30 10:42 | 42.89894 | 13.11140 | 37243 ft | 493 kts | 128° |
| 2026-04-30 10:42 | 42.85753 | 13.18590 | 37207 ft | 493 kts | 129° |
| 2026-04-30 10:43 | 42.81604 | 13.26036 | 37244 ft | 494 kts | 129° |
| 2026-04-30 10:43 | 42.77448 | 13.33479 | 37223 ft | 494 kts | 129° |
| 2026-04-30 10:44 | 42.73283 | 13.40924 | 37245 ft | 495 kts | 129° |
| 2026-04-30 10:44 | 42.69105 | 13.48375 | 37232 ft | 496 kts | 129° |
| 2026-04-30 10:45 | 42.65616 | 13.54578 | 37258 ft | 497 kts | 129° |
| 2026-04-30 10:45 | 42.61421 | 13.62026 | 37216 ft | 497 kts | 129° |
| 2026-04-30 10:46 | 42.57225 | 13.69456 | 37249 ft | 496 kts | 129° |
| 2026-04-30 10:46 | 42.53025 | 13.76872 | 37249 ft | 495 kts | 129° |
| 2026-04-30 10:47 | 42.48827 | 13.84268 | 37246 ft | 494 kts | 129° |
| 2026-04-30 10:47 | 42.44634 | 13.91637 | 37254 ft | 494 kts | 130° |
| 2026-04-30 10:48 | 42.40434 | 13.98999 | 37247 ft | 494 kts | 130° |
| 2026-04-30 10:48 | 42.36231 | 14.06349 | 37270 ft | 494 kts | 130° |
| 2026-04-30 10:49 | 42.32028 | 14.13680 | 37268 ft | 493 kts | 130° |
| 2026-04-30 10:49 | 42.27829 | 14.20988 | 37252 ft | 492 kts | 130° |
| 2026-04-30 10:50 | 42.23623 | 14.28288 | 37246 ft | 493 kts | 130° |
| 2026-04-30 10:50 | 42.19440 | 14.35532 | 37241 ft | 492 kts | 130° |
| 2026-04-30 10:51 | 42.15229 | 14.42807 | 37217 ft | 492 kts | 130° |
| 2026-04-30 10:51 | 42.11010 | 14.50077 | 37225 ft | 492 kts | 130° |
| 2026-04-30 10:52 | 42.06790 | 14.57332 | 37220 ft | 492 kts | 130° |
| 2026-04-30 10:52 | 42.02564 | 14.64580 | 37203 ft | 492 kts | 130° |
| 2026-04-30 10:53 | 41.98333 | 14.71818 | 37192 ft | 492 kts | 130° |
| 2026-04-30 10:53 | 41.94104 | 14.79037 | 37196 ft | 492 kts | 130° |
| 2026-04-30 10:54 | 41.89870 | 14.86246 | 37203 ft | 491 kts | 130° |
| 2026-04-30 10:54 | 41.85635 | 14.93440 | 37196 ft | 491 kts | 130° |
| 2026-04-30 10:55 | 41.81397 | 15.00622 | 37207 ft | 491 kts | 130° |
| 2026-04-30 10:55 | 41.77150 | 15.07801 | 37195 ft | 492 kts | 130° |
| 2026-04-30 10:56 | 41.72891 | 15.14984 | 37194 ft | 493 kts | 130° |
| 2026-04-30 10:56 | 41.68622 | 15.22167 | 37186 ft | 494 kts | 130° |
| 2026-04-30 10:57 | 41.64333 | 15.29366 | 37193 ft | 495 kts | 130° |
| 2026-04-30 10:57 | 41.60038 | 15.36559 | 37168 ft | 496 kts | 130° |
| 2026-04-30 10:58 | 41.55732 | 15.43753 | 37152 ft | 496 kts | 131° |
| 2026-04-30 10:58 | 41.51418 | 15.50943 | 37172 ft | 497 kts | 131° |
| 2026-04-30 10:59 | 41.47086 | 15.58145 | 37161 ft | 499 kts | 131° |
| 2026-04-30 10:59 | 41.42747 | 15.65343 | 37163 ft | 498 kts | 131° |
| 2026-04-30 11:00 | 41.38438 | 15.72475 | 37156 ft | 496 kts | 131° |
| 2026-04-30 11:00 | 41.34109 | 15.79622 | 37151 ft | 495 kts | 131° |
| 2026-04-30 11:01 | 41.29794 | 15.86728 | 37147 ft | 493 kts | 131° |
| 2026-04-30 11:01 | 41.25484 | 15.93812 | 37159 ft | 492 kts | 131° |
| 2026-04-30 11:02 | 41.21173 | 16.00879 | 37162 ft | 492 kts | 131° |
| 2026-04-30 11:02 | 41.16868 | 16.07920 | 37162 ft | 491 kts | 131° |
| 2026-04-30 11:03 | 41.12568 | 16.14938 | 37149 ft | 490 kts | 131° |
| 2026-04-30 11:04 | 41.06110 | 16.25444 | 37141 ft | 490 kts | 131° |
| 2026-04-30 11:04 | 41.01799 | 16.32440 | 37133 ft | 490 kts | 131° |
| 2026-04-30 11:05 | 40.97488 | 16.39419 | 37136 ft | 489 kts | 131° |
| 2026-04-30 11:05 | 40.93177 | 16.46382 | 37136 ft | 489 kts | 132° |
| 2026-04-30 11:06 | 40.88869 | 16.53324 | 37136 ft | 489 kts | 132° |
| 2026-04-30 11:06 | 40.84552 | 16.60265 | 37128 ft | 489 kts | 132° |
| 2026-04-30 11:07 | 40.80224 | 16.67207 | 37116 ft | 489 kts | 132° |
| 2026-04-30 11:07 | 40.75898 | 16.74132 | 37123 ft | 489 kts | 132° |
| 2026-04-30 11:08 | 40.71567 | 16.81048 | 37122 ft | 488 kts | 132° |
| 2026-04-30 11:08 | 40.67269 | 16.87897 | 37126 ft | 488 kts | 132° |
| 2026-04-30 11:09 | 40.62946 | 16.94769 | 37125 ft | 487 kts | 132° |
| 2026-04-30 11:09 | 40.58625 | 17.01623 | 37119 ft | 486 kts | 132° |
| 2026-04-30 11:10 | 40.54308 | 17.08456 | 37115 ft | 486 kts | 132° |
| 2026-04-30 11:10 | 40.49988 | 17.15279 | 37102 ft | 485 kts | 132° |
| 2026-04-30 11:11 | 40.45671 | 17.22081 | 37098 ft | 484 kts | 132° |
| 2026-04-30 11:11 | 40.41354 | 17.28869 | 37103 ft | 484 kts | 132° |
| 2026-04-30 11:12 | 40.37040 | 17.35637 | 37098 ft | 483 kts | 132° |
| 2026-04-30 11:12 | 40.32720 | 17.42398 | 37114 ft | 484 kts | 132° |
| 2026-04-30 11:13 | 40.28395 | 17.49155 | 37091 ft | 484 kts | 132° |
| 2026-04-30 11:13 | 40.24067 | 17.55899 | 37103 ft | 483 kts | 132° |
| 2026-04-30 11:14 | 40.19739 | 17.62630 | 37086 ft | 483 kts | 132° |
| 2026-04-30 11:14 | 40.15413 | 17.69343 | 37096 ft | 482 kts | 132° |
| 2026-04-30 11:15 | 40.11093 | 17.76033 | 37089 ft | 482 kts | 132° |
| 2026-04-30 11:15 | 40.06768 | 17.82715 | 37092 ft | 481 kts | 133° |
| 2026-04-30 11:16 | 40.02455 | 17.89365 | 37092 ft | 480 kts | 133° |
| 2026-04-30 11:16 | 39.98136 | 17.96010 | 37089 ft | 480 kts | 133° |
| 2026-04-30 11:17 | 39.93815 | 18.02642 | 37091 ft | 480 kts | 133° |
| 2026-04-30 11:17 | 39.89492 | 18.09266 | 37091 ft | 479 kts | 133° |
| 2026-04-30 11:18 | 39.85196 | 18.15832 | 37090 ft | 479 kts | 133° |
| 2026-04-30 11:18 | 39.78678 | 18.25769 | 37087 ft | 479 kts | 133° |
| 2026-04-30 11:19 | 39.74344 | 18.32359 | 37087 ft | 479 kts | 133° |
| 2026-04-30 11:19 | 39.70008 | 18.38939 | 37089 ft | 479 kts | 133° |
| 2026-04-30 11:20 | 39.65664 | 18.45517 | 37081 ft | 480 kts | 133° |
| 2026-04-30 11:20 | 39.61349 | 18.52036 | 37074 ft | 480 kts | 133° |
| 2026-04-30 11:21 | 39.56997 | 18.58598 | 37082 ft | 480 kts | 133° |
| 2026-04-30 11:21 | 39.52642 | 18.65151 | 37080 ft | 480 kts | 133° |
| 2026-04-30 11:22 | 39.48285 | 18.71693 | 37076 ft | 480 kts | 133° |
| 2026-04-30 11:22 | 39.43920 | 18.78234 | 37085 ft | 480 kts | 134° |
| 2026-04-30 11:23 | 39.39550 | 18.84769 | 37072 ft | 480 kts | 134° |
| 2026-04-30 11:24 | 39.32992 | 18.94554 | 37058 ft | 480 kts | 134° |
| 2026-04-30 11:24 | 39.28645 | 19.01112 | 37064 ft | 481 kts | 130° |
| 2026-04-30 11:25 | 39.22868 | 19.11748 | 37072 ft | 483 kts | 126° |
| 2026-04-30 11:26 | 39.15280 | 19.26051 | 37066 ft | 484 kts | 127° |
| 2026-04-30 11:26 | 39.11430 | 19.33162 | 37062 ft | 484 kts | 127° |
| 2026-04-30 11:27 | 39.07568 | 19.40264 | 37065 ft | 484 kts | 127° |
| 2026-04-30 11:27 | 39.03700 | 19.47363 | 37067 ft | 484 kts | 127° |
| 2026-04-30 11:28 | 38.97893 | 19.57999 | 37067 ft | 485 kts | 128° |
| 2026-04-30 11:29 | 38.94011 | 19.65090 | 37067 ft | 485 kts | 128° |
| 2026-04-30 11:29 | 38.88213 | 19.75652 | 37065 ft | 485 kts | 128° |
| 2026-04-30 11:30 | 38.82380 | 19.86243 | 37068 ft | 484 kts | 128° |
| 2026-04-30 11:31 | 38.78485 | 19.93296 | 37078 ft | 484 kts | 128° |
| 2026-04-30 11:31 | 38.74589 | 20.00335 | 37071 ft | 484 kts | 128° |
| 2026-04-30 11:32 | 38.70688 | 20.07370 | 37046 ft | 484 kts | 128° |
| 2026-04-30 11:32 | 38.66787 | 20.14387 | 37065 ft | 484 kts | 128° |
| 2026-04-30 11:33 | 38.60929 | 20.24897 | 37068 ft | 484 kts | 128° |
| 2026-04-30 11:33 | 38.57675 | 20.30719 | 37068 ft | 484 kts | 128° |
| 2026-04-30 11:34 | 38.53756 | 20.37719 | 37065 ft | 484 kts | 128° |
| 2026-04-30 11:34 | 38.49831 | 20.44716 | 37067 ft | 485 kts | 128° |
| 2026-04-30 11:35 | 38.45904 | 20.51699 | 37063 ft | 485 kts | 128° |
| 2026-04-30 11:35 | 38.41965 | 20.58690 | 37061 ft | 485 kts | 128° |
| 2026-04-30 11:36 | 38.38025 | 20.65667 | 37034 ft | 485 kts | 129° |
| 2026-04-30 11:36 | 38.34080 | 20.72639 | 37046 ft | 485 kts | 129° |
| 2026-04-30 11:37 | 38.30136 | 20.79593 | 37063 ft | 484 kts | 129° |
| 2026-04-30 11:37 | 38.26188 | 20.86540 | 37053 ft | 484 kts | 129° |
| 2026-04-30 11:38 | 38.22235 | 20.93479 | 37049 ft | 485 kts | 129° |
| 2026-04-30 11:38 | 38.18274 | 21.00419 | 37048 ft | 485 kts | 129° |
| 2026-04-30 11:39 | 38.14307 | 21.07355 | 37045 ft | 485 kts | 129° |
| 2026-04-30 11:39 | 38.10336 | 21.14284 | 37050 ft | 485 kts | 129° |
| 2026-04-30 11:40 | 38.06365 | 21.21197 | 37020 ft | 485 kts | 129° |
| 2026-04-30 11:40 | 38.02388 | 21.28108 | 37049 ft | 485 kts | 129° |
| 2026-04-30 11:41 | 37.98402 | 21.35017 | 37052 ft | 486 kts | 129° |
| 2026-04-30 11:41 | 37.94435 | 21.41880 | 37048 ft | 486 kts | 129° |
| 2026-04-30 11:42 | 37.90437 | 21.48783 | 37045 ft | 486 kts | 129° |
| 2026-04-30 11:42 | 37.86449 | 21.55654 | 37045 ft | 485 kts | 129° |
| 2026-04-30 11:43 | 37.82442 | 21.62544 | 37049 ft | 485 kts | 129° |
| 2026-04-30 11:43 | 37.78437 | 21.69415 | 37041 ft | 485 kts | 129° |
| 2026-04-30 11:44 | 37.74427 | 21.76281 | 37037 ft | 485 kts | 129° |
| 2026-04-30 11:44 | 37.70412 | 21.83142 | 37020 ft | 486 kts | 130° |
| 2026-04-30 11:45 | 37.66392 | 21.89996 | 37027 ft | 485 kts | 130° |
| 2026-04-30 11:45 | 37.62373 | 21.96836 | 37042 ft | 485 kts | 130° |
| 2026-04-30 11:46 | 37.58354 | 22.03660 | 37049 ft | 485 kts | 130° |
| 2026-04-30 11:46 | 37.54322 | 22.10493 | 37032 ft | 486 kts | 130° |
| 2026-04-30 11:47 | 37.50290 | 22.17314 | 37024 ft | 485 kts | 130° |
| 2026-04-30 11:47 | 37.46260 | 22.24118 | 37014 ft | 484 kts | 130° |
| 2026-04-30 11:48 | 37.42237 | 22.30896 | 37017 ft | 483 kts | 130° |
| 2026-04-30 11:48 | 37.38339 | 22.37770 | 37008 ft | 483 kts | 126° |
| 2026-04-30 11:49 | 37.34704 | 22.44872 | 37027 ft | 483 kts | 125° |
| 2026-04-30 11:49 | 37.31099 | 22.52006 | 37024 ft | 484 kts | 125° |
| 2026-04-30 11:50 | 37.27462 | 22.59120 | 37016 ft | 485 kts | 126° |
| 2026-04-30 11:50 | 37.23792 | 22.66233 | 37016 ft | 485 kts | 126° |
| 2026-04-30 11:51 | 37.20112 | 22.73335 | 37021 ft | 485 kts | 126° |
| 2026-04-30 11:51 | 37.16450 | 22.80387 | 37015 ft | 486 kts | 126° |
| 2026-04-30 11:52 | 37.12761 | 22.87479 | 37026 ft | 486 kts | 126° |